createdAt,value
2023-04-15T00:01:03.994Z,99404.09
2023-04-15T00:04:06.836Z,99409.47
2023-04-15T00:07:09.276Z,99395.91
2023-04-15T00:10:11.641Z,99401.34
2023-04-15T00:13:14.105Z,99404.75
2023-04-15T00:16:18.385Z,99404.75
2023-04-15T00:19:21.213Z,99410.31
2023-04-15T00:22:23.760Z,99397.63
2023-04-15T00:25:26.386Z,99397.03
2023-04-15T00:28:31.062Z,99415.06
2023-04-15T00:31:34.372Z,99404.00
2023-04-15T00:34:37.314Z,99409.53
2023-04-15T00:37:39.763Z,99410.31
2023-04-15T00:40:43.625Z,99404.16
2023-04-15T00:43:46.055Z,99407.94
2023-04-15T00:46:50.859Z,99413.31
2023-04-15T00:49:53.540Z,99409.16
2023-04-15T00:52:56.195Z,99399.41
2023-04-15T00:55:58.646Z,99379.97
2023-04-15T00:59:02.387Z,99392.47
2023-04-15T01:02:05.777Z,99393.06
2023-04-15T01:05:08.622Z,99379.16
2023-04-15T01:08:11.017Z,99404.00
2023-04-15T01:11:13.843Z,99389.28
2023-04-15T01:14:16.361Z,99373.59
2023-04-15T01:17:19.167Z,99399.41
2023-04-15T01:20:22.249Z,99384.13
2023-04-15T01:23:24.905Z,99376.00
2023-04-15T01:26:27.593Z,99360.50
2023-04-15T01:29:32.875Z,99387.94
2023-04-15T01:32:37.008Z,99388.53
2023-04-15T01:35:39.850Z,99383.16
2023-04-15T01:38:42.387Z,99376.59
2023-04-15T01:41:45.479Z,99371.44
2023-04-15T01:44:47.988Z,99386.50
2023-04-15T01:47:51.099Z,99381.34
2023-04-15T01:50:57.254Z,99401.03
2023-04-15T01:53:59.712Z,99392.88
2023-04-15T01:57:02.359Z,99390.91
2023-04-15T02:00:07.797Z,99399.06
2023-04-15T02:03:19.374Z,99406.81
2023-04-15T02:06:21.894Z,99404.78
2023-04-15T02:09:24.315Z,99404.38
2023-04-15T02:12:27.300Z,99400.44
2023-04-15T02:15:29.856Z,99386.31
2023-04-15T02:18:32.785Z,99388.13
2023-04-15T02:21:35.530Z,99395.28
2023-04-15T02:24:38.341Z,99396.84
2023-04-15T02:27:40.792Z,99392.88
2023-04-15T02:30:43.576Z,99383.75
2023-04-15T02:33:46.674Z,99398.66
2023-04-15T02:36:49.770Z,99396.06
2023-04-15T02:39:52.364Z,99388.72
2023-04-15T02:42:55.170Z,99376.41
2023-04-15T02:45:57.747Z,99393.69
2023-04-15T02:49:00.689Z,99391.31
2023-04-15T02:52:03.494Z,99390.91
2023-04-15T02:55:06.675Z,99395.66
2023-04-15T02:58:09.090Z,99395.47
2023-04-15T03:01:11.861Z,99394.06
2023-04-15T03:04:15.984Z,99403.81
2023-04-15T03:07:18.886Z,99399.44
2023-04-15T03:10:22.178Z,99397.66
2023-04-15T03:13:24.961Z,99411.75
2023-04-15T03:16:28.956Z,99388.31
2023-04-15T03:19:31.958Z,99388.31
2023-04-15T03:22:35.217Z,99377.00
2023-04-15T03:25:38.845Z,99396.06
2023-04-15T03:28:42.873Z,99397.66
2023-04-15T03:31:45.622Z,99383.38
2023-04-15T03:34:48.060Z,99390.50
2023-04-15T03:37:50.999Z,99385.13
2023-04-15T03:40:53.464Z,99396.66
2023-04-15T03:43:57.243Z,99392.69
2023-04-15T03:46:59.838Z,99391.28
2023-04-15T03:50:02.261Z,99388.91
2023-04-15T03:53:04.779Z,99398.03
2023-04-15T03:56:07.467Z,99404.19
2023-04-15T03:59:10.032Z,99409.56
2023-04-15T04:02:12.511Z,99392.06
2023-04-15T04:05:15.043Z,99400.22
2023-04-15T04:08:19.554Z,99404.00
2023-04-15T04:11:22.106Z,99401.81
2023-04-15T04:14:29.481Z,99379.34
2023-04-15T04:17:31.868Z,99402.97
2023-04-15T04:20:35.368Z,99392.84
2023-04-15T04:23:37.884Z,99385.09
2023-04-15T04:26:40.656Z,99387.88
2023-04-15T04:29:43.429Z,99396.59
2023-04-15T04:32:46.052Z,99382.09
2023-04-15T04:35:48.653Z,99398.16
2023-04-15T04:38:51.375Z,99403.91
2023-04-15T04:41:54.343Z,99401.75
2023-04-15T04:44:56.892Z,99385.25
2023-04-15T04:47:59.437Z,99400.94
2023-04-15T04:51:02.188Z,99401.72
2023-04-15T04:54:05.027Z,99396.53
2023-04-15T04:57:08.153Z,99393.91
2023-04-15T05:00:11.272Z,99409.53
2023-04-15T05:03:14.746Z,99409.69
2023-04-15T05:06:17.260Z,99396.91
2023-04-15T05:09:20.168Z,99396.78
2023-04-15T05:12:22.707Z,99385.88
2023-04-15T05:15:25.453Z,99391.50
2023-04-15T05:18:27.898Z,99390.44
2023-04-15T05:21:31.287Z,99391.69
2023-04-15T05:24:33.810Z,99368.75
2023-04-15T05:27:36.761Z,99380.22
2023-04-15T05:30:39.609Z,99373.59
2023-04-15T05:33:43.014Z,99394.19
2023-04-15T05:36:45.437Z,99390.81
2023-04-15T05:39:48.638Z,99403.16
2023-04-15T05:42:51.490Z,99400.66
2023-04-15T05:45:54.045Z,99395.25
2023-04-15T05:48:56.883Z,99406.44
2023-04-15T05:51:59.446Z,99414.22
2023-04-15T05:55:02.070Z,99417.00
2023-04-15T05:58:04.620Z,99401.63
2023-04-15T06:01:07.294Z,99413.63
2023-04-15T06:04:10.740Z,99411.44
2023-04-15T06:07:13.157Z,99419.34
2023-04-15T06:10:16.024Z,99429.03
2023-04-15T06:13:18.746Z,99435.88
2023-04-15T06:16:21.393Z,99437.06
2023-04-15T06:19:24.822Z,99427.72
2023-04-15T06:22:27.275Z,99425.16
2023-04-15T06:25:29.727Z,99436.16
2023-04-15T06:28:32.408Z,99432.38
2023-04-15T06:31:35.069Z,99443.94
2023-04-15T06:34:37.518Z,99442.00
2023-04-15T06:37:39.904Z,99441.91
2023-04-15T06:40:42.914Z,99442.06
2023-04-15T06:43:45.338Z,99448.25
2023-04-15T06:46:47.789Z,99453.91
2023-04-15T06:49:50.378Z,99442.44
2023-04-15T06:52:54.256Z,99453.22
2023-04-15T06:55:57.158Z,99437.53
2023-04-15T06:58:59.859Z,99464.38
2023-04-15T07:02:02.651Z,99460.25
2023-04-15T07:05:07.015Z,99463.63
2023-04-15T07:08:09.472Z,99462.19
2023-04-15T07:11:12.321Z,99476.97
2023-04-15T07:14:14.893Z,99468.03
2023-04-15T07:17:17.742Z,99467.44
2023-04-15T07:20:20.270Z,99469.41
2023-04-15T07:23:23.311Z,99468.13
2023-04-15T07:26:25.843Z,99474.03
2023-04-15T07:29:28.475Z,99467.38
2023-04-15T07:32:31.173Z,99452.88
2023-04-15T07:35:34.423Z,99478.31
2023-04-15T07:38:37.114Z,99476.63
2023-04-15T07:41:39.890Z,99479.00
2023-04-15T07:44:42.811Z,99471.31
2023-04-15T07:47:45.457Z,99485.34
2023-04-15T07:50:49.156Z,99469.41
2023-04-15T07:53:51.904Z,99475.16
2023-04-15T07:56:54.410Z,99486.00
2023-04-15T07:59:56.814Z,99492.00
2023-04-15T08:02:59.906Z,99486.44
2023-04-15T08:06:02.499Z,99481.47
2023-04-15T08:09:05.016Z,99495.63
2023-04-15T08:12:09.513Z,99474.22
2023-04-15T08:15:13.168Z,99494.44
2023-04-15T08:18:15.751Z,99498.19
2023-04-15T08:21:20.331Z,99481.44
2023-04-15T08:24:26.237Z,99487.72
2023-04-15T08:27:28.707Z,99481.69
2023-04-15T08:30:31.192Z,99508.38
2023-04-15T08:33:33.724Z,99487.97
2023-04-15T08:36:36.169Z,99485.81
2023-04-15T08:39:38.773Z,99494.22
2023-04-15T08:42:47.150Z,99487.91
2023-04-15T08:45:51.807Z,99498.22
2023-04-15T08:48:57.889Z,99495.25
2023-04-15T08:52:00.795Z,99487.94
2023-04-15T08:55:04.929Z,99504.28
2023-04-15T08:58:07.913Z,99487.59
2023-04-15T09:01:15.338Z,99488.25
2023-04-15T09:04:18.302Z,99487.88
2023-04-15T09:07:20.881Z,99487.59
2023-04-15T09:10:23.759Z,99491.44
2023-04-15T09:13:26.677Z,99496.22
2023-04-15T09:16:29.547Z,99497.66
2023-04-15T09:19:34.438Z,99492.38
2023-04-15T09:22:38.025Z,99491.00
2023-04-15T09:25:44.504Z,99501.34
2023-04-15T09:28:47.521Z,99499.72
2023-04-15T09:31:50.777Z,99493.53
2023-04-15T09:34:53.781Z,99484.25
2023-04-15T09:38:07.514Z,99495.47
2023-04-15T09:41:19.774Z,99481.56
2023-04-15T09:44:26.482Z,99487.56
2023-04-15T09:47:31.338Z,99473.56
2023-04-15T09:50:41.472Z,99484.22
2023-04-15T09:53:43.926Z,99485.25
2023-04-15T09:56:47.171Z,99491.06
2023-04-15T09:59:51.093Z,99487.91
2023-04-15T10:02:53.776Z,99477.09
2023-04-15T10:05:58.690Z,99485.06
2023-04-15T10:09:01.874Z,99483.84
2023-04-15T10:12:05.747Z,99487.53
2023-04-15T10:15:14.790Z,99497.91
2023-04-15T10:18:20.574Z,99486.19
2023-04-15T10:21:23.770Z,99496.94
2023-04-15T10:24:27.889Z,99479.13
2023-04-15T10:27:31.127Z,99489.94
2023-04-15T10:30:34.396Z,99478.88
2023-04-15T10:33:38.802Z,99480.03
2023-04-15T10:36:41.624Z,99484.78
2023-04-15T10:39:44.544Z,99492.28
2023-04-15T10:42:47.399Z,99496.19
2023-04-15T10:45:49.992Z,99495.22
2023-04-15T10:48:54.056Z,99490.66
2023-04-15T10:51:59.844Z,99484.50
2023-04-15T10:55:11.218Z,99515.69
2023-04-15T10:58:15.103Z,99507.66
2023-04-15T11:01:20.107Z,99512.91
2023-04-15T11:04:58.379Z,99519.38
2023-04-15T11:08:00.841Z,99533.41
2023-04-15T11:11:03.389Z,99517.88
2023-04-15T11:14:05.954Z,99510.88
2023-04-15T11:17:08.412Z,99520.13
2023-04-15T11:20:16.061Z,99510.31
2023-04-15T11:23:20.156Z,99528.06
2023-04-15T11:26:27.235Z,99539.81
2023-04-15T11:29:32.084Z,99528.47
2023-04-15T11:32:35.331Z,99527.34
2023-04-15T11:35:38.514Z,99536.91
2023-04-15T11:38:45.280Z,99541.28
2023-04-15T11:41:47.860Z,99542.72
2023-04-15T11:44:51.629Z,99534.69
2023-04-15T11:47:54.175Z,99536.63
2023-04-15T11:50:58.856Z,99537.38
2023-04-15T11:54:01.592Z,99518.72
2023-04-15T11:57:04.336Z,99538.16
2023-04-15T12:00:07.882Z,99539.25
2023-04-15T12:03:20.113Z,99528.41
2023-04-15T12:06:24.943Z,99540.16
2023-04-15T12:09:28.215Z,99534.94
2023-04-15T12:12:30.979Z,99549.00
2023-04-15T12:15:33.462Z,99548.22
2023-04-15T12:18:38.911Z,99535.94
2023-04-15T12:21:44.740Z,99541.72
2023-04-15T12:24:48.805Z,99540.41
2023-04-15T12:27:52.772Z,99546.25
2023-04-15T12:30:55.422Z,99554.94
2023-04-15T12:33:59.594Z,99549.44
2023-04-15T12:37:05.277Z,99557.66
2023-04-15T12:40:08.782Z,99558.88
2023-04-15T12:43:11.612Z,99544.00
2023-04-15T12:46:14.037Z,99553.44
2023-04-15T12:49:19.470Z,99559.75
2023-04-15T12:52:22.105Z,99545.78
2023-04-15T12:55:24.530Z,99561.50
2023-04-15T12:58:27.557Z,99557.91
2023-04-15T13:01:30.545Z,99562.00
2023-04-15T13:04:33.338Z,99562.81
2023-04-15T13:07:35.967Z,99573.19
2023-04-15T13:10:38.612Z,99575.31
2023-04-15T13:13:41.445Z,99575.59
2023-04-15T13:16:44.267Z,99581.78
2023-04-15T13:19:46.707Z,99564.59
2023-04-15T13:22:49.251Z,99586.28
2023-04-15T13:25:52.153Z,99558.22
2023-04-15T13:28:54.763Z,99577.09
2023-04-15T13:31:57.274Z,99565.78
2023-04-15T13:35:00.011Z,99568.19
2023-04-15T13:38:02.454Z,99572.28
2023-04-15T13:41:05.055Z,99583.41
2023-04-15T13:44:07.952Z,99582.56
2023-04-15T13:47:11.084Z,99580.38
2023-04-15T13:50:13.599Z,99592.09
2023-04-15T13:53:16.456Z,99581.34
2023-04-15T13:56:18.940Z,99590.97
2023-04-15T13:59:22.484Z,99598.78
2023-04-15T14:02:24.925Z,99596.44
2023-04-15T14:05:27.599Z,99590.63
2023-04-15T14:08:30.842Z,99609.47
2023-04-15T14:11:35.410Z,99588.59
2023-04-15T14:14:38.046Z,99603.91
2023-04-15T14:17:42.492Z,99589.03
2023-04-15T14:20:45.110Z,99603.53
2023-04-15T14:23:47.784Z,99612.38
2023-04-15T14:26:50.395Z,99601.91
2023-04-15T14:29:54.204Z,99606.34
2023-04-15T14:32:56.713Z,99604.34
2023-04-15T14:35:59.337Z,99622.78
2023-04-15T14:39:01.834Z,99610.16
2023-04-15T14:42:04.330Z,99617.56
2023-04-15T14:45:07.478Z,99618.88
2023-04-15T14:48:10.173Z,99625.03
2023-04-15T14:51:12.704Z,99620.59
2023-04-15T14:54:15.556Z,99625.00
2023-04-15T14:57:18.149Z,99637.97
2023-04-15T15:00:20.667Z,99632.06
2023-04-15T15:03:23.987Z,99628.03
2023-04-15T15:06:26.704Z,99637.53
2023-04-15T15:09:29.934Z,99633.44
2023-04-15T15:12:33.431Z,99630.00
2023-04-15T15:15:37.468Z,99638.94
2023-04-15T15:18:40.598Z,99639.91
2023-04-15T15:21:43.242Z,99629.63
2023-04-15T15:24:46.351Z,99653.63
2023-04-15T15:27:49.095Z,99654.66
2023-04-15T15:30:51.628Z,99662.97
2023-04-15T15:33:54.119Z,99653.78
2023-04-15T15:36:57.639Z,99655.75
2023-04-15T15:40:00.928Z,99657.34
2023-04-15T15:43:04.314Z,99667.09
2023-04-15T15:46:06.899Z,99646.56
2023-04-15T15:49:09.487Z,99665.72
2023-04-15T15:52:12.778Z,99674.31
2023-04-15T15:55:15.216Z,99682.03
2023-04-15T15:58:17.708Z,99664.50
2023-04-15T16:01:20.494Z,99691.00
2023-04-15T16:04:23.410Z,99687.59
2023-04-15T16:07:26.191Z,99700.50
2023-04-15T16:10:28.913Z,99707.69
2023-04-15T16:13:31.405Z,99713.53
2023-04-15T16:16:33.909Z,99701.69
2023-04-15T16:19:37.149Z,99705.47
2023-04-15T16:22:39.801Z,99693.78
2023-04-15T16:25:43.763Z,99712.03
2023-04-15T16:28:46.602Z,99726.44
2023-04-15T16:31:49.414Z,99729.28
2023-04-15T16:34:53.017Z,99737.44
2023-04-15T16:37:55.735Z,99731.66
2023-04-15T16:40:59.752Z,99733.31
2023-04-15T16:44:03.359Z,99744.63
2023-04-15T16:47:06.148Z,99752.72
2023-04-15T16:50:09.507Z,99750.44
2023-04-15T16:53:12.348Z,99746.81
2023-04-15T16:56:14.990Z,99761.53
2023-04-15T16:59:17.766Z,99763.16
2023-04-15T17:02:21.437Z,99753.75
2023-04-15T17:05:24.002Z,99755.56
2023-04-15T17:08:26.841Z,99750.59
2023-04-15T17:11:29.366Z,99773.06
2023-04-15T17:14:33.250Z,99759.59
2023-04-15T17:17:36.072Z,99787.25
2023-04-15T17:20:39.655Z,99780.25
2023-04-15T17:23:42.185Z,99775.16
2023-04-15T17:26:44.774Z,99793.72
2023-04-15T17:29:47.377Z,99798.94
2023-04-15T17:32:51.833Z,99804.09
2023-04-15T17:35:54.385Z,99794.22
2023-04-15T17:38:57.160Z,99801.44
2023-04-15T17:41:59.852Z,99794.09
2023-04-15T17:45:02.488Z,99794.53
2023-04-15T17:48:06.357Z,99803.34
2023-04-15T17:51:09.150Z,99808.75
2023-04-15T17:54:11.730Z,99812.81
2023-04-15T17:57:14.793Z,99820.16
2023-04-15T18:00:18.074Z,99832.34
2023-04-15T18:03:20.784Z,99836.00
2023-04-15T18:06:23.609Z,99843.78
2023-04-15T18:09:28.021Z,99852.38
2023-04-15T18:12:31.192Z,99856.19
2023-04-15T18:15:34.772Z,99851.03
2023-04-15T18:18:37.475Z,99841.91
2023-04-15T18:21:40.072Z,99846.28
2023-04-15T18:24:42.815Z,99860.81
2023-04-15T18:27:45.735Z,99867.22
2023-04-15T18:30:48.316Z,99865.88
2023-04-15T18:33:51.185Z,99855.50
2023-04-15T18:36:55.492Z,99873.44
2023-04-15T18:39:58.630Z,99889.19
2023-04-15T18:43:01.457Z,99873.44
2023-04-15T18:46:08.422Z,99896.16
2023-04-15T18:49:14.038Z,99895.75
2023-04-15T18:52:16.655Z,99901.75
2023-04-15T18:55:19.862Z,99903.94
2023-04-15T18:58:22.461Z,99905.75
2023-04-15T19:01:25.168Z,99906.53
2023-04-15T19:04:29.339Z,99914.69
2023-04-15T19:07:33.108Z,99901.56
2023-04-15T19:10:35.706Z,99918.31
2023-04-15T19:13:38.438Z,99924.25
2023-04-15T19:16:41.387Z,99924.03
2023-04-15T19:19:44.164Z,99927.44
2023-04-15T19:22:47.395Z,99945.56
2023-04-15T19:25:50.515Z,99937.78
2023-04-15T19:28:53.962Z,99922.38
2023-04-15T19:31:56.690Z,99943.53
2023-04-15T19:35:00.343Z,99954.69
2023-04-15T19:38:03.260Z,99961.09
2023-04-15T19:41:06.266Z,99955.44
2023-04-15T19:44:08.741Z,99956.66
2023-04-15T19:47:13.135Z,99949.84
2023-04-15T19:50:17.154Z,99969.59
2023-04-15T19:53:20.502Z,99966.56
2023-04-15T19:56:24.082Z,99962.19
2023-04-15T19:59:26.938Z,99975.16
2023-04-15T20:02:30.265Z,99970.56
2023-04-15T20:05:33.364Z,99971.41
2023-04-15T20:08:36.011Z,99978.16
2023-04-15T20:12:06.130Z,99970.97
2023-04-15T20:15:02.431Z,99980.91
2023-04-15T20:18:06.198Z,99983.78
2023-04-15T20:21:08.899Z,99987.78
2023-04-15T20:24:11.825Z,99986.38
2023-04-15T20:27:15.182Z,100008.50
2023-04-15T20:30:18.061Z,100007.09
2023-04-15T20:33:22.296Z,100004.03
2023-04-15T20:36:24.777Z,99994.69
2023-04-15T20:39:27.272Z,99996.88
2023-04-15T20:42:36.678Z,100004.41
2023-04-15T20:45:39.589Z,100010.44
2023-04-15T20:48:41.997Z,100019.00
2023-04-15T20:51:44.765Z,100017.25
2023-04-15T20:54:47.425Z,100008.41
2023-04-15T20:57:49.953Z,100013.38
2023-04-15T21:00:54.801Z,100010.78
2023-04-15T21:03:58.965Z,100025.34
2023-04-15T21:07:01.403Z,100002.41
2023-04-15T21:10:04.285Z,99997.44
2023-04-15T21:13:07.888Z,100025.50
2023-04-15T21:16:10.558Z,100027.28
2023-04-15T21:19:13.024Z,100021.72
2023-04-15T21:22:15.750Z,100043.50
2023-04-15T21:25:18.734Z,100036.50
2023-04-15T21:28:21.915Z,100035.69
2023-04-15T21:31:24.402Z,100041.91
2023-04-15T21:34:26.856Z,100043.44
2023-04-15T21:37:29.345Z,100028.88
2023-04-15T21:40:31.855Z,100058.97
2023-04-15T21:43:34.572Z,100053.72
2023-04-15T21:46:37.219Z,100065.72
2023-04-15T21:49:42.073Z,100049.09
2023-04-15T21:52:45.191Z,100077.66
2023-04-15T21:55:48.154Z,100074.03
2023-04-15T21:58:51.290Z,100061.19
2023-04-15T22:01:53.990Z,100081.09
2023-04-15T22:04:56.716Z,100087.91
2023-04-15T22:08:02.041Z,100075.91
2023-04-15T22:11:04.782Z,100080.72
2023-04-15T22:14:07.296Z,100090.50
2023-04-15T22:17:09.720Z,100079.69
2023-04-15T22:20:13.420Z,100081.47
2023-04-15T22:23:17.538Z,100085.84
2023-04-15T22:26:20.341Z,100090.03
2023-04-15T22:29:23.026Z,100070.84
2023-04-15T22:32:25.527Z,100092.63
2023-04-15T22:35:27.988Z,100098.03
2023-04-15T22:38:31.047Z,100105.13
2023-04-15T22:41:33.473Z,100103.50
2023-04-15T22:44:35.899Z,100101.28
2023-04-15T22:47:38.379Z,100102.09
2023-04-15T22:50:41.121Z,100096.50
2023-04-15T22:53:43.567Z,100095.47
2023-04-15T22:56:46.218Z,100106.59
2023-04-15T22:59:48.774Z,100107.50
2023-04-15T23:02:51.312Z,100106.31
2023-04-15T23:05:53.916Z,100100.06
2023-04-15T23:08:56.465Z,100105.66
2023-04-15T23:11:58.998Z,100116.22
2023-04-15T23:15:01.622Z,100104.66
2023-04-15T23:18:05.155Z,100095.47
2023-04-15T23:21:07.710Z,100110.66
2023-04-15T23:24:10.363Z,100093.47
2023-04-15T23:27:12.717Z,100105.47
2023-04-15T23:30:15.372Z,100106.50
2023-04-15T23:33:17.919Z,100105.56
2023-04-15T23:36:21.129Z,100095.97
2023-04-15T23:39:23.690Z,100101.94
2023-04-15T23:42:26.411Z,100098.53
2023-04-15T23:45:28.967Z,100104.34
2023-04-15T23:48:31.712Z,100114.91
2023-04-15T23:51:34.104Z,100106.16
2023-04-15T23:54:37.498Z,100114.78
2023-04-15T23:57:41.219Z,100121.69
